Time;durP1;ratioP1;P1;durP2;ratioP2;P2;SDS_P1;SDS_P2;PMS_P1;PMS_P2;Temp;Humidity;BMP_temperature;BMP_pressure;BME280_temperature;BME280_humidity;BME280_pressure;Samples;Min_cycle;Max_cycle;Signal;HPM_P1;HPM_P2
2023/08/11 00:00:50;;;;;;;9.55;7.40;;;;;;;16.48;100.00;101768.25;5091069;28;20040;-77
2023/08/11 00:06:37;;;;;;;9.98;7.68;;;;;;;16.30;100.00;101774.53;5092360;28;20042;-78
2023/08/11 00:12:24;;;;;;;11.05;8.20;;;;;;;16.23;100.00;101773.78;5092081;28;20359;-75
2023/08/11 00:18:11;;;;;;;9.18;8.10;;;;;;;16.22;100.00;101765.94;5091952;28;20323;-77
2023/08/11 00:23:57;;;;;;;11.50;9.18;;;;;;;16.21;100.00;101769.69;5091896;28;20309;-78
2023/08/11 00:29:44;;;;;;;13.60;9.27;;;;;;;16.15;100.00;101759.78;5091756;28;20316;-78
2023/08/11 00:38:52;;;;;;;10.23;8.80;;;;;;;16.00;100.00;101765.59;5091517;28;20039;-78
2023/08/11 00:44:39;;;;;;;10.85;9.40;;;;;;;15.96;100.00;101767.94;5091806;28;20082;-76
2023/08/11 00:50:27;;;;;;;12.35;9.85;;;;;;;15.90;100.00;101755.34;5091608;28;20330;-77
2023/08/11 00:56:14;;;;;;;11.02;8.82;;;;;;;15.88;100.00;101743.94;5091626;28;20093;-78
2023/08/11 01:02:01;;;;;;;14.05;10.55;;;;;;;15.93;100.00;101725.22;5091724;28;20047;-78
2023/08/11 01:08:12;;;;;;;16.42;10.63;;;;;;;15.96;100.00;101734.72;5091350;28;20097;-77
2023/08/11 01:14:15;;;;;;;11.43;8.88;;;;;;;15.89;100.00;101728.56;5091315;28;20093;-77
2023/08/11 01:20:09;;;;;;;12.52;10.00;;;;;;;15.84;100.00;101720.34;5093203;28;20047;-78
2023/08/11 01:25:56;;;;;;;14.90;11.73;;;;;;;15.82;100.00;101717.06;5094679;28;20654;-79
2023/08/11 01:31:43;;;;;;;11.50;9.55;;;;;;;15.75;100.00;101723.34;5095031;28;20043;-78
2023/08/11 01:37:30;;;;;;;13.38;11.98;;;;;;;15.76;100.00;101724.19;5094324;28;20657;-78
2023/08/11 01:43:19;;;;;;;14.35;11.65;;;;;;;15.72;100.00;101723.00;5094625;28;20093;-77
2023/08/11 01:45:48;;;;;;;16.30;12.00;;;;;;;15.70;100.00;101727.78;5075906;28;20026;-77
2023/08/11 01:51:34;;;;;;;14.88;12.48;;;;;;;15.57;100.00;101730.59;5080236;28;20558;-78
2023/08/11 01:54:00;;;;;;;23.50;13.05;;;;;;;15.54;100.00;101723.78;5075947;28;20048;-77
2023/08/11 01:56:26;;;;;;;16.92;13.65;;;;;;;15.54;100.00;101723.78;5093039;28;20051;-78
2023/08/11 02:02:13;;;;;;;15.13;11.88;;;;;;;15.52;100.00;101706.19;5093772;28;20101;-78
2023/08/11 02:08:01;;;;;;;16.55;13.18;;;;;;;15.47;100.00;101704.19;5093701;28;20161;-78
2023/08/11 02:13:48;;;;;;;18.65;13.13;;;;;;;15.46;100.00;101713.31;5093757;28;20544;-78
2023/08/11 02:16:13;;;;;;;14.65;12.23;;;;;;;15.39;100.00;101709.88;5074626;28;20040;-77
2023/08/11 02:18:39;;;;;;;12.30;10.82;;;;;;;15.31;100.00;101702.06;5075236;28;20711;-77
2023/08/11 02:21:06;;;;;;;16.02;13.45;;;;;;;15.24;100.00;101694.06;5093692;28;20031;-77
2023/08/11 02:26:53;;;;;;;17.08;14.68;;;;;;;15.23;100.00;101695.09;5093417;28;20043;-78
2023/08/11 02:29:18;;;;;;;17.83;14.57;;;;;;;15.22;100.00;101693.47;5092515;28;20028;-77
2023/08/11 02:31:44;;;;;;;17.60;15.70;;;;;;;15.22;100.00;101698.03;5073482;28;20288;-77
2023/08/11 02:37:31;;;;;;;17.10;14.20;;;;;;;15.24;100.00;101701.31;5093071;28;20265;-76
2023/08/11 02:39:56;;;;;;;20.48;14.27;;;;;;;15.22;100.00;101706.13;5092820;28;20028;-77
2023/08/11 02:42:21;;;;;;;16.77;13.25;;;;;;;15.18;100.00;101708.44;5074942;28;20471;-76
2023/08/11 02:44:47;;;;;;;18.77;15.23;;;;;;;15.12;100.00;101707.47;5074421;28;20036;-77
2023/08/11 02:47:12;;;;;;;17.33;15.15;;;;;;;15.15;100.00;101708.88;5093071;28;20024;-78
2023/08/11 02:52:59;;;;;;;18.05;14.38;;;;;;;15.12;100.00;101707.47;5093218;28;20039;-77
2023/08/11 02:58:46;;;;;;;19.63;15.43;;;;;;;15.06;100.00;101712.91;5092972;28;20125;-78
2023/08/11 03:04:36;;;;;;;17.90;14.13;;;;;;;15.05;100.00;101711.28;5093143;28;20085;-78
2023/08/11 03:10:23;;;;;;;20.30;15.35;;;;;;;15.01;100.00;101701.97;5093091;28;20491;-77
2023/08/11 03:12:48;;;;;;;17.05;14.60;;;;;;;15.02;100.00;101698.22;5074190;28;20040;-77
2023/08/11 03:15:13;;;;;;;15.03;13.37;;;;;;;14.94;100.00;101683.19;5074487;28;20081;-76
2023/08/11 03:17:39;;;;;;;16.08;13.30;;;;;;;14.94;100.00;101696.66;5074592;28;20653;-76
2023/08/11 03:20:12;;;;;;;17.65;14.95;;;;;;;14.91;100.00;101693.56;5074214;28;20036;-77
2023/08/11 03:22:41;;;;;;;20.38;14.38;;;;;;;14.87;100.00;101688.63;5074526;28;20577;-76
2023/08/11 03:25:07;;;;;;;24.10;15.95;;;;;;;14.87;100.00;101701.28;5091735;28;20105;-77
2023/08/11 03:34:24;;;;;;;21.77;16.98;;;;;;;14.80;100.00;101693.25;5092851;28;20062;-78
2023/08/11 03:36:49;;;;;;;20.45;17.33;;;;;;;14.79;100.00;101698.88;5092373;28;20040;-78
2023/08/11 03:39:15;;;;;;;21.00;17.17;;;;;;;14.81;100.00;101699.47;5091428;28;20044;-78
2023/08/11 03:45:01;;;;;;;20.67;16.48;;;;;;;14.75;100.00;101694.97;5092330;28;20311;-77
2023/08/11 03:50:48;;;;;;;21.70;17.58;;;;;;;14.61;100.00;101685.34;5077841;28;20059;-76
2023/08/11 03:53:14;;;;;;;22.17;16.37;;;;;;;14.56;100.00;101686.00;5091233;28;20048;-76
2023/08/11 03:59:01;;;;;;;23.45;18.23;;;;;;;14.53;100.00;101681.91;5092503;28;20081;-76
2023/08/11 04:04:48;;;;;;;23.42;16.83;;;;;;;14.49;100.00;101686.06;5092250;28;20319;-79
2023/08/11 04:07:13;;;;;;;23.35;18.60;;;;;;;14.48;100.00;101679.03;5091100;28;20040;-79
2023/08/11 04:09:43;;;;;;;22.00;18.17;;;;;;;14.52;100.00;101688.31;5091907;28;20032;-78
2023/08/11 04:12:09;;;;;;;22.33;17.98;;;;;;;14.51;100.00;101688.53;5073836;28;20274;-79
2023/08/11 04:14:34;;;;;;;20.73;18.20;;;;;;;14.48;100.00;101692.50;5073071;28;20475;-77
2023/08/11 04:16:59;;;;;;;23.40;17.97;;;;;;;14.50;100.00;101687.72;5073584;28;20036;-77
2023/08/11 04:22:47;;;;;;;18.92;16.38;;;;;;;14.50;100.00;101689.59;5092063;28;20142;-77
2023/08/11 04:28:36;;;;;;;19.98;17.13;;;;;;;14.53;100.00;101689.97;5091751;28;20046;-77
2023/08/11 04:34:23;;;;;;;21.92;18.05;;;;;;;14.62;100.00;101684.31;5091564;28;20138;-78
2023/08/11 04:40:14;;;;;;;23.25;18.48;;;;;;;14.73;100.00;101680.88;5075506;28;20818;-78
2023/08/11 04:42:43;;;;;;;23.52;18.13;;;;;;;14.80;100.00;101690.56;5072763;28;20044;-77
2023/08/11 04:48:30;;;;;;;20.67;17.75;;;;;;;14.96;100.00;101688.34;5091598;28;20113;-77
2023/08/11 04:50:56;;;;;;;24.73;18.37;;;;;;;15.03;100.00;101676.44;5091381;28;20460;-77
2023/08/11 04:56:43;;;;;;;21.75;18.83;;;;;;;15.21;100.00;101677.53;5095244;28;20050;-77
2023/08/11 04:59:09;;;;;;;23.88;17.73;;;;;;;15.29;100.00;101666.44;5094883;28;20036;-78
2023/08/11 05:01:34;;;;;;;24.10;17.83;;;;;;;15.43;100.00;101666.06;5094271;28;20464;-78
2023/08/11 05:07:21;;;;;;;22.70;18.23;;;;;;;16.01;100.00;101664.72;5080580;28;20047;-78
2023/08/11 05:13:08;;;;;;;23.08;16.38;;;;;;;16.58;100.00;101662.38;5094978;28;20511;-77
2023/08/11 05:15:34;;;;;;;18.53;16.50;;;;;;;16.93;100.00;101665.94;5093741;28;20040;-78
2023/08/11 05:21:21;;;;;;;21.23;15.93;;;;;;;17.63;100.00;101660.38;5095082;28;20494;-78
2023/08/11 05:23:46;;;;;;;19.97;16.07;;;;;;;17.87;100.00;101660.31;5075780;28;20044;-81
2023/08/11 05:26:11;;;;;;;21.53;15.30;;;;;;;18.09;100.00;101666.69;5094520;28;20381;-81
2023/08/11 05:28:37;;;;;;;20.60;15.13;;;;;;;18.38;100.00;101670.16;5094245;28;20293;-81
2023/08/11 05:34:24;;;;;;;19.90;14.82;;;;;;;18.86;100.00;101657.94;5080263;28;20323;-81
2023/08/11 05:40:11;;;;;;;20.65;14.63;;;;;;;19.62;100.00;101655.41;5094422;28;20335;-82
2023/08/11 05:42:36;;;;;;;17.17;13.85;;;;;;;19.97;100.00;101657.69;5094200;28;20020;-81
2023/08/11 05:48:23;;;;;;;16.48;13.52;;;;;;;20.69;100.00;101662.66;5094569;28;20039;-83
2023/08/11 05:50:50;;;;;;;26.02;14.18;;;;;;;20.83;100.00;101665.75;5075502;28;20044;-83
2023/08/11 05:56:37;;;;;;;20.00;13.27;;;;;;;21.38;100.00;101672.59;5094539;28;20050;-82
2023/08/11 05:59:02;;;;;;;20.20;12.83;;;;;;;21.93;100.00;101663.78;5075200;28;20474;-81
2023/08/11 06:01:27;;;;;;;18.35;12.32;;;;;;;22.54;100.00;101664.66;5093816;28;20032;-82
2023/08/11 06:07:14;;;;;;;18.35;12.60;;;;;;;23.72;96.15;101663.25;5092476;28;20584;-82
2023/08/11 06:09:39;;;;;;;18.90;11.95;;;;;;;24.26;93.23;101672.44;5093741;28;20020;-79
2023/08/11 06:12:05;;;;;;;15.00;11.57;;;;;;;24.67;89.97;101664.75;5092820;28;20109;-79
2023/08/11 06:14:31;;;;;;;16.55;11.65;;;;;;;24.54;88.79;101668.13;5075383;28;20753;-82
2023/08/11 06:16:56;;;;;;;19.02;12.52;;;;;;;24.54;89.83;101663.47;5075314;28;20031;-81
2023/08/11 06:19:23;;;;;;;15.03;12.27;;;;;;;24.83;88.95;101668.13;5074679;28;20056;-81
2023/08/11 06:25:09;;;;;;;16.63;11.48;;;;;;;25.27;83.78;101673.41;5093778;28;20116;-80
2023/08/11 06:30:57;;;;;;;14.50;10.77;;;;;;;26.71;80.66;101671.84;5081201;28;20591;-79
2023/08/11 06:36:47;;;;;;;15.50;10.98;;;;;;;27.12;76.04;101682.06;5093474;28;20075;-81
2023/08/11 06:42:34;;;;;;;14.93;11.15;;;;;;;27.59;73.38;101682.75;5093337;28;20051;-80
2023/08/11 06:48:21;;;;;;;16.23;10.35;;;;;;;28.96;67.42;101696.78;5092758;28;20039;-79
2023/08/11 06:54:08;;;;;;;18.17;10.70;;;;;;;30.87;61.65;101697.75;5093099;28;20089;-79
2023/08/11 06:59:56;;;;;;;17.50;10.43;;;;;;;31.93;55.73;101703.22;5078708;28;20097;-79
2023/08/11 07:02:21;;;;;;;14.18;10.18;;;;;;;32.37;55.54;101703.63;5092018;28;20376;-79
2023/08/11 07:08:08;;;;;;;12.10;9.63;;;;;;;33.15;51.64;101711.91;5093118;28;20057;-80
2023/08/11 07:13:55;;;;;;;12.57;9.48;;;;;;;33.58;48.81;101707.75;5092457;28;20411;-81
2023/08/11 07:19:42;;;;;;;13.20;10.00;;;;;;;33.64;47.76;101709.13;5092409;28;20047;-81
2023/08/11 07:25:29;;;;;;;11.38;9.00;;;;;;;33.48;45.38;101711.78;5092095;28;20332;-80
2023/08/11 07:31:16;;;;;;;12.32;7.47;;;;;;;34.74;45.45;101717.88;5092211;28;20039;-82
2023/08/11 07:37:04;;;;;;;10.25;7.63;;;;;;;35.89;40.78;101719.47;5092448;28;20047;-81
2023/08/11 07:42:51;;;;;;;10.88;7.70;;;;;;;37.21;36.54;101714.38;5092202;28;20523;-81
2023/08/11 07:48:38;;;;;;;9.18;6.22;;;;;;;38.03;35.01;101718.38;5091943;28;20376;-81
2023/08/11 07:57:47;;;;;;;8.18;5.00;;;;;;;39.73;31.04;101732.31;5091704;28;20112;-79
2023/08/11 08:03:35;;;;;;;7.60;4.90;;;;;;;39.27;30.60;101735.59;5091575;28;20043;-81
2023/08/11 08:09:22;;;;;;;7.63;4.80;;;;;;;38.74;31.41;101731.16;5091811;28;20383;-83
2023/08/11 08:15:10;;;;;;;11.07;5.00;;;;;;;38.48;31.52;101724.91;5092514;28;20380;-83
2023/08/11 08:20:57;;;;;;;7.35;4.93;;;;;;;39.57;30.33;101721.44;5092580;28;20047;-81
2023/08/11 08:26:44;;;;;;;7.28;4.93;;;;;;;40.27;29.26;101719.34;5092497;28;20043;-81
2023/08/11 08:32:33;;;;;;;8.82;5.25;;;;;;;39.21;30.93;101726.78;5095207;28;20054;-80
2023/08/11 08:38:20;;;;;;;7.03;4.78;;;;;;;40.46;29.29;101731.00;5095600;28;20044;-79
2023/08/11 08:44:07;;;;;;;;;;;;;;;41.91;29.29;101731.31;5095642;28;20097;-80
2023/08/11 08:49:55;;;;;;;;;;;;;;;41.93;29.10;101732.53;5095399;28;20847;-81
2023/08/11 08:55:43;;;;;;;9.30;4.53;;;;;;;41.61;26.21;101726.97;5096956;28;20039;-82
2023/08/11 09:01:31;;;;;;;5.40;3.97;;;;;;;40.54;27.76;101726.25;5095505;28;20043;-82
2023/08/11 09:07:18;;;;;;;;;;;;;;;40.95;30.20;101725.88;5095567;28;20097;-80
2023/08/11 09:09:43;;;;;;;7.93;4.30;;;;;;;40.69;29.30;101704.59;5076784;28;19916;-81
2023/08/11 09:15:30;;;;;;;11.40;4.70;;;;;;;41.54;26.86;101721.38;5094779;28;20751;-81
2023/08/11 09:21:19;;;;;;;;;;;;;;;42.05;29.77;101718.03;5095549;28;20135;-78
2023/08/11 09:23:45;;;;;;;6.68;4.00;;;;;;;41.01;27.98;101729.88;5094765;28;20411;-80
2023/08/11 09:29:34;;;;;;;8.38;4.35;;;;;;;40.75;27.44;101711.41;5094742;28;20075;-81
2023/08/11 09:32:02;;;;;;;7.13;3.67;;;;;;;40.70;27.49;101720.22;5094064;28;20460;-82
2023/08/11 09:34:28;;;;;;;8.25;4.15;;;;;;;40.50;29.24;101712.22;5093239;28;20043;-81
2023/08/11 09:36:53;;;;;;;8.40;3.90;;;;;;;40.72;28.87;101710.19;5094226;28;20051;-81
2023/08/11 09:42:40;;;;;;;6.20;4.03;;;;;;;38.47;32.46;101712.09;5094799;28;20084;-80
2023/08/11 09:48:27;;;;;;;5.38;3.90;;;;;;;35.43;38.95;101691.41;5094260;28;20445;-80
2023/08/11 09:54:15;;;;;;;6.55;3.80;;;;;;;34.00;42.92;101686.84;5094092;28;20038;-80
2023/08/11 10:00:11;;;;;;;4.53;3.38;;;;;;;32.68;46.34;101692.09;5093575;28;20082;-81
2023/08/11 10:06:00;;;;;;;8.05;3.78;;;;;;;32.27;48.05;101688.28;5093723;28;20047;-81
2023/08/11 10:11:47;;;;;;;5.88;4.03;;;;;;;32.07;46.37;101684.34;5093975;28;20094;-81
2023/08/11 10:14:16;;;;;;;4.35;3.58;;;;;;;31.69;51.14;101688.06;5092561;28;20067;-81
2023/08/11 10:16:44;;;;;;;5.60;3.70;;;;;;;31.21;48.39;101694.03;5093494;28;20028;-82
2023/08/11 10:22:32;;;;;;;6.78;3.38;;;;;;;32.98;45.62;101687.19;5094016;28;20047;-81
2023/08/11 10:28:20;;;;;;;6.03;3.50;;;;;;;33.14;45.39;101674.25;5093923;28;20515;-81
2023/08/11 10:34:07;;;;;;;6.72;3.40;;;;;;;32.04;48.38;101671.19;5092815;28;20043;-81
2023/08/11 10:40:04;;;;;;;6.13;3.50;;;;;;;31.41;51.21;101673.13;5093865;28;20038;-81
2023/08/11 10:45:53;;;;;;;5.07;3.20;;;;;;;31.02;50.42;101666.00;5093601;28;20047;-81
2023/08/11 10:51:41;;;;;;;5.72;3.35;;;;;;;30.74;52.96;101671.97;5093177;28;20422;-81
2023/08/11 10:57:31;;;;;;;5.75;3.42;;;;;;;31.07;50.99;101671.34;5093054;28;20043;-81
2023/08/11 11:03:18;;;;;;;5.93;3.30;;;;;;;33.29;47.82;101673.56;5093238;28;20054;-80
2023/08/11 11:05:44;;;;;;;4.97;3.38;;;;;;;34.40;43.91;101675.69;5092772;28;20028;-80
2023/08/11 11:11:31;;;;;;;3.78;3.05;;;;;;;33.52;47.20;101674.69;5092933;28;20093;-84
2023/08/11 11:17:18;;;;;;;4.00;3.13;;;;;;;33.54;47.11;101669.63;5093319;28;20395;-81
2023/08/11 11:19:44;;;;;;;5.77;3.30;;;;;;;34.20;43.63;101673.94;5092720;28;20115;-82
2023/08/11 11:22:09;;;;;;;6.77;3.17;;;;;;;34.53;41.82;101668.09;5091769;28;20374;-81
2023/08/11 11:27:57;;;;;;;4.88;2.88;;;;;;;32.57;46.87;101664.00;5092207;28;20047;-83
2023/08/11 11:30:22;;;;;;;6.10;2.88;;;;;;;32.31;48.01;101667.88;5092872;28;20031;-82
2023/08/11 11:32:49;;;;;;;5.63;3.50;;;;;;;32.00;49.28;101664.72;5092835;28;20051;-82
2023/08/11 11:35:14;;;;;;;5.55;3.30;;;;;;;31.76;50.17;101657.09;5091661;28;20051;-82
2023/08/11 11:37:40;;;;;;;6.30;3.05;;;;;;;31.82;49.80;101666.03;5092412;28;20031;-84
2023/08/11 11:40:07;;;;;;;5.55;3.35;;;;;;;31.94;49.64;101666.91;5091493;28;20062;-82
2023/08/11 11:42:36;;;;;;;5.88;3.03;;;;;;;31.50;51.11;101660.03;5092260;28;20032;-82
2023/08/11 11:45:02;;;;;;;6.90;3.65;;;;;;;31.23;52.47;101652.28;5092254;28;20244;-80
2023/08/11 11:47:27;;;;;;;4.85;2.88;;;;;;;31.09;51.68;101649.69;5091422;28;20446;-83
2023/08/11 11:49:57;;;;;;;4.55;3.13;;;;;;;31.33;51.71;101646.34;5090689;28;20051;-82
2023/08/11 11:52:24;;;;;;;5.30;3.33;;;;;;;32.01;51.76;101644.19;5090138;28;20564;-82
2023/08/11 11:58:13;;;;;;;5.45;3.28;;;;;;;35.50;43.91;101654.56;5092920;28;20138;-82
2023/08/11 12:00:39;;;;;;;7.65;3.08;;;;;;;36.23;39.50;101648.13;5091904;28;20110;-81
2023/08/11 12:03:05;;;;;;;5.03;3.60;;;;;;;36.32;37.93;101657.09;5091940;28;20109;-83
2023/08/11 12:05:30;;;;;;;4.13;3.25;;;;;;;36.34;39.42;101660.31;5091350;28;20286;-82
2023/08/11 12:07:55;;;;;;;8.17;3.50;;;;;;;36.46;37.34;101660.16;5073790;28;20077;-82
2023/08/11 12:10:44;;;;;;;6.50;3.50;;;;;;;36.33;41.50;101655.91;5090889;28;20054;-82
2023/08/11 12:13:09;;;;;;;3.95;3.00;;;;;;;35.16;40.19;101654.19;5091862;28;20096;-81
2023/08/11 12:19:00;;;;;;;5.70;3.90;;;;;;;32.91;48.35;101649.75;5092102;28;20047;-81
2023/08/11 12:21:27;;;;;;;5.55;3.30;;;;;;;32.48;48.11;101641.16;5091885;28;20497;-82
2023/08/11 12:23:52;;;;;;;5.95;3.60;;;;;;;32.23;47.85;101637.47;5090995;28;20048;-81
2023/08/11 12:29:39;;;;;;;7.10;4.18;;;;;;;32.03;49.54;101639.94;5091634;28;20097;-82
2023/08/11 12:35:26;;;;;;;6.13;3.83;;;;;;;32.17;51.92;101633.31;5091979;28;20081;-82
2023/08/11 12:41:13;;;;;;;5.43;3.92;;;;;;;32.30;53.49;101629.44;5091669;28;20316;-83
2023/08/11 12:50:24;;;;;;;4.35;3.70;;;;;;;34.35;46.16;101633.47;5091199;28;20046;-83
2023/08/11 12:56:11;;;;;;;5.93;3.47;;;;;;;34.27;47.54;101637.19;5091560;28;20043;-83
2023/08/11 13:01:58;;;;;;;8.80;4.40;;;;;;;33.46;47.31;101623.38;5091094;28;20035;-81
2023/08/11 13:07:45;;;;;;;7.47;3.50;;;;;;;32.69;50.77;101616.13;5091231;28;20281;-82
2023/08/11 13:13:32;;;;;;;4.57;3.40;;;;;;;32.11;55.85;101629.16;5091434;28;20093;-82
2023/08/11 13:19:18;;;;;;;4.88;3.33;;;;;;;32.35;54.13;101616.19;5095261;28;20084;-81
2023/08/11 13:25:06;;;;;;;5.47;3.50;;;;;;;32.17;55.25;101623.06;5094956;28;20450;-81
2023/08/11 13:27:32;;;;;;;4.35;3.50;;;;;;;32.05;54.55;101632.09;5094866;28;20119;-82
2023/08/11 13:29:57;;;;;;;4.20;3.80;;;;;;;31.97;53.24;101613.63;5094047;28;20115;-82
2023/08/11 13:32:22;;;;;;;7.90;3.22;;;;;;;32.22;54.51;101613.72;5094592;28;20051;-81
2023/08/11 13:38:12;;;;;;;5.43;3.88;;;;;;;32.37;54.78;101615.84;5094345;28;20043;-82
2023/08/11 13:43:59;;;;;;;5.25;3.70;;;;;;;31.87;56.00;101616.84;5094784;28;20042;-83
2023/08/11 13:49:46;;;;;;;7.57;4.05;;;;;;;31.36;56.74;101606.97;5094317;28;20431;-83
2023/08/11 13:55:33;;;;;;;6.10;4.10;;;;;;;31.06;59.85;101604.22;5094465;28;20529;-84
2023/08/11 14:01:20;;;;;;;6.10;4.00;;;;;;;30.96;62.85;101601.03;5093493;28;20123;-84
2023/08/11 14:07:07;;;;;;;6.65;4.40;;;;;;;31.27;60.26;101590.44;5094050;28;20101;-83
2023/08/11 14:12:54;;;;;;;6.90;4.10;;;;;;;31.14;61.06;101589.53;5093403;28;20043;-83
2023/08/11 14:18:43;;;;;;;4.53;3.83;;;;;;;31.47;58.53;101599.06;5093273;28;20101;-83
2023/08/11 14:24:31;;;;;;;4.77;4.20;;;;;;;31.14;63.57;101595.03;5093614;28;20085;-82
2023/08/11 14:30:18;;;;;;;5.38;3.70;;;;;;;30.90;63.21;101599.56;5093611;28;20100;-82
2023/08/11 14:36:05;;;;;;;6.75;3.75;;;;;;;30.70;65.57;101592.88;5094086;28;20399;-77
2023/08/11 14:41:52;;;;;;;5.07;3.92;;;;;;;30.79;64.19;101596.38;5093662;28;20145;-82
2023/08/11 14:47:40;;;;;;;6.50;3.97;;;;;;;30.65;66.05;101596.63;5093257;28;20403;-84
2023/08/11 14:53:29;;;;;;;6.85;3.83;;;;;;;30.70;65.11;101593.69;5093307;28;20051;-83
2023/08/11 14:59:35;;;;;;;8.05;4.50;;;;;;;30.19;69.86;101591.88;5092248;28;20097;-82
2023/08/11 15:05:23;;;;;;;7.03;3.83;;;;;;;29.87;72.58;101587.69;5092956;28;20050;-81
2023/08/11 15:07:48;;;;;;;5.20;3.92;;;;;;;29.88;72.61;101583.78;5089496;28;20044;-81
2023/08/11 15:10:13;;;;;;;5.00;4.30;;;;;;;30.06;72.41;101582.63;5092647;28;20110;-81
2023/08/11 15:12:38;;;;;;;9.47;4.23;;;;;;;30.06;71.53;101576.31;5073936;28;20093;-80
2023/08/11 15:18:30;;;;;;;7.97;3.80;;;;;;;30.12;72.06;101577.78;5092854;28;20043;-79
2023/08/11 15:24:41;;;;;;;4.63;4.20;;;;;;;30.32;69.04;101573.47;5093900;28;20135;-83
2023/08/11 15:30:28;;;;;;;10.00;5.70;;;;;;;29.95;76.51;101564.78;5092545;28;20173;-79
2023/08/11 15:36:15;;;;;;;10.75;7.38;;;;;;;28.99;84.42;101574.16;5092359;28;20052;-79
2023/08/11 15:42:02;;;;;;;11.05;7.53;;;;;;;28.73;86.19;101564.97;5092387;28;20482;-79
2023/08/11 15:47:49;;;;;;;16.55;7.10;;;;;;;28.94;88.28;101549.50;5093529;28;20101;-77
2023/08/11 15:53:36;;;;;;;12.52;7.30;;;;;;;29.09;85.92;101551.00;5092238;28;20347;-76
2023/08/11 15:59:23;;;;;;;14.05;7.07;;;;;;;28.98;85.43;101540.28;5091990;28;20516;-76
2023/08/11 16:05:10;;;;;;;19.08;8.02;;;;;;;28.44;86.47;101546.25;5092008;28;20055;-77
2023/08/11 16:10:57;;;;;;;9.98;6.97;;;;;;;27.75;93.63;101530.94;5091790;28;20093;-76
2023/08/11 16:16:44;;;;;;;16.58;7.13;;;;;;;27.59;93.89;101526.91;5092068;28;20132;-78
2023/08/11 16:22:33;;;;;;;15.52;7.07;;;;;;;27.20;97.21;101527.56;5091701;28;20380;-78
2023/08/11 16:28:20;;;;;;;16.08;6.78;;;;;;;26.96;99.79;101530.53;5091594;28;20043;-77
2023/08/11 16:34:07;;;;;;;16.05;6.45;;;;;;;26.76;100.00;101536.44;5090976;28;20313;-77
2023/08/11 16:39:54;;;;;;;12.82;6.50;;;;;;;26.64;100.00;101547.13;5091578;28;20036;-79
2023/08/11 16:45:41;;;;;;;14.80;5.85;;;;;;;26.35;100.00;101547.41;5091511;28;20281;-78
2023/08/11 16:51:28;;;;;;;16.65;5.70;;;;;;;26.05;99.90;101548.75;5094032;28;20093;-79
2023/08/11 16:57:15;;;;;;;7.80;4.63;;;;;;;25.81;100.00;101541.47;5095285;28;20273;-78
2023/08/11 17:03:04;;;;;;;10.80;4.80;;;;;;;25.97;100.00;101546.69;5095086;28;20054;-78
2023/08/11 17:08:51;;;;;;;12.05;5.40;;;;;;;26.08;100.00;101556.38;5095431;28;20050;-79
2023/08/11 17:14:38;;;;;;;16.48;5.57;;;;;;;26.05;100.00;101548.75;5095313;28;20401;-80
2023/08/11 17:20:25;;;;;;;12.65;5.68;;;;;;;25.64;100.00;101555.66;5094817;28;20043;-77
2023/08/11 17:26:15;;;;;;;11.13;5.65;;;;;;;25.27;100.00;101551.03;5094608;28;20152;-78
2023/08/11 17:32:02;;;;;;;11.05;5.68;;;;;;;25.09;100.00;101560.03;5094946;28;20070;-76
2023/08/11 17:37:50;;;;;;;13.52;5.82;;;;;;;24.94;100.00;101569.22;5095168;28;20277;-79
2023/08/11 17:43:38;;;;;;;11.93;5.68;;;;;;;24.70;100.00;101566.50;5093318;28;20193;-75
2023/08/11 17:49:25;;;;;;;14.02;5.20;;;;;;;24.47;100.00;101561.00;5093618;28;20055;-75
2023/08/11 17:55:12;;;;;;;11.15;5.72;;;;;;;24.44;100.00;101564.31;5093873;28;20154;-77
2023/08/11 18:00:59;;;;;;;12.10;5.43;;;;;;;24.19;100.00;101573.56;5093435;28;20039;-76
2023/08/11 18:06:46;;;;;;;11.20;5.95;;;;;;;23.89;100.00;101574.63;5093495;28;20522;-79
2023/08/11 18:12:33;;;;;;;9.43;5.75;;;;;;;23.78;100.00;101571.97;5093626;28;20078;-76
2023/08/11 18:18:20;;;;;;;11.23;6.10;;;;;;;23.69;100.00;101562.75;5093095;28;20066;-77
2023/08/11 18:24:08;;;;;;;14.05;6.78;;;;;;;23.46;100.00;101571.63;5093232;28;20343;-76
2023/08/11 18:29:55;;;;;;;14.20;6.55;;;;;;;23.32;100.00;101559.69;5093366;28;20051;-76
2023/08/11 18:35:42;;;;;;;13.57;5.95;;;;;;;23.30;100.00;101570.06;5093185;28;20314;-76
2023/08/11 18:41:29;;;;;;;13.05;6.18;;;;;;;23.24;100.00;101572.03;5092926;28;20273;-79
2023/08/11 18:47:16;;;;;;;16.80;6.80;;;;;;;23.22;100.00;101567.94;5092866;28;20212;-76
2023/08/11 18:53:03;;;;;;;13.25;6.18;;;;;;;23.24;100.00;101568.47;5092825;28;20046;-76
2023/08/11 18:58:50;;;;;;;11.98;7.00;;;;;;;23.00;100.00;101585.50;5092527;28;20362;-76
2023/08/11 19:04:37;;;;;;;11.10;6.65;;;;;;;22.76;100.00;101587.19;5092623;28;20114;-75
2023/08/11 19:10:24;;;;;;;19.33;7.50;;;;;;;22.67;100.00;101603.28;5092955;28;20050;-75
2023/08/11 19:16:11;;;;;;;15.23;7.70;;;;;;;;;;5092316;28;20765;-75
2023/08/11 19:21:58;;;;;;;13.00;7.57;;;;;;;22.19;100.00;101591.09;5092897;28;20126;-75
2023/08/11 19:27:45;;;;;;;14.20;7.75;;;;;;;21.94;100.00;101603.56;5092413;28;20047;-78
2023/08/11 19:33:32;;;;;;;14.10;8.02;;;;;;;22.00;100.00;101592.72;5091593;28;20522;-77
2023/08/11 19:39:19;;;;;;;14.07;7.82;;;;;;;22.15;100.00;101590.00;5092026;28;20075;-77
2023/08/11 19:45:07;;;;;;;18.75;8.10;;;;;;;22.30;100.00;101595.47;5092162;28;20576;-76
2023/08/11 19:50:56;;;;;;;12.75;8.75;;;;;;;22.15;100.00;101593.53;5091929;28;20560;-80
2023/08/11 19:56:43;;;;;;;15.00;8.20;;;;;;;22.00;100.00;101590.00;5091881;28;20085;-80
2023/08/11 20:02:29;;;;;;;12.50;8.32;;;;;;;22.00;100.00;101587.25;5092150;28;20419;-78
2023/08/11 20:08:17;;;;;;;16.67;9.77;;;;;;;21.81;100.00;101585.06;5092111;28;20323;-75
2023/08/11 20:14:04;;;;;;;14.68;9.10;;;;;;;21.73;100.00;101582.88;5091900;28;20089;-74
2023/08/11 20:19:50;;;;;;;14.38;8.93;;;;;;;21.66;100.00;101579.59;5092028;28;20288;-75
2023/08/11 20:25:37;;;;;;;19.67;8.90;;;;;;;21.59;100.00;101582.56;5090339;28;20383;-75
2023/08/11 20:31:29;;;;;;;14.57;8.93;;;;;;;21.61;100.00;101566.78;5091141;28;20312;-75
2023/08/11 20:37:16;;;;;;;12.60;9.20;;;;;;;21.88;100.00;101568.44;5091913;28;20507;-76
2023/08/11 20:43:04;;;;;;;13.52;8.90;;;;;;;21.89;100.00;101560.00;5091466;28;20089;-76
2023/08/11 20:48:50;;;;;;;18.08;9.18;;;;;;;21.91;100.00;101560.56;5090890;28;20300;-76
2023/08/11 20:54:42;;;;;;;14.82;9.48;;;;;;;21.76;100.00;101567.91;5091912;28;20085;-77
2023/08/11 21:00:29;;;;;;;13.13;8.15;;;;;;;21.56;100.00;101577.66;5091479;28;20039;-77
2023/08/11 21:06:17;;;;;;;18.00;8.77;;;;;;;21.45;100.00;101572.50;5091958;28;20047;-78
2023/08/11 21:12:05;;;;;;;17.13;8.57;;;;;;;21.36;100.00;101571.34;5092054;28;20047;-76
2023/08/11 21:17:52;;;;;;;11.07;7.53;;;;;;;21.22;100.00;101576.47;5091465;28;20059;-76
2023/08/11 21:23:39;;;;;;;10.30;7.18;;;;;;;21.13;100.00;101573.44;5091455;28;20387;-76
2023/08/11 21:29:26;;;;;;;13.05;7.90;;;;;;;21.08;100.00;101581.56;5090801;28;20400;-76
2023/08/11 21:35:13;;;;;;;14.77;7.40;;;;;;;21.04;100.00;101578.56;5091013;28;20109;-76
2023/08/11 21:41:00;;;;;;;14.07;8.02;;;;;;;20.88;100.00;101581.50;5094306;28;20281;-75
2023/08/11 21:46:47;;;;;;;12.50;7.93;;;;;;;20.91;100.00;101583.69;5093147;28;20090;-76
2023/08/11 21:52:34;;;;;;;14.00;8.20;;;;;;;20.80;100.00;101596.38;5093846;28;20370;-74
2023/08/11 21:58:21;;;;;;;13.02;7.75;;;;;;;20.47;100.00;101591.31;5094092;28;20081;-77
2023/08/11 22:04:09;;;;;;;15.48;9.25;;;;;;;20.31;100.00;101587.66;5093997;28;20066;-76
2023/08/11 22:09:56;;;;;;;20.55;9.98;;;;;;;20.20;100.00;101591.34;5093827;28;20051;-76
2023/08/11 22:15:43;;;;;;;16.15;9.30;;;;;;;20.16;100.00;101582.06;5093741;28;20476;-77
2023/08/11 22:21:30;;;;;;;16.95;10.32;;;;;;;20.26;100.00;101582.19;5094153;28;20170;-77